Time,TemperatureF,DewpointF,PressureIn,WindDirection,WindDirectionDegrees,WindSpeedMPH,WindSpeedGustMPH,Humidity,HourlyPrecipIn,Conditions,Clouds,dailyrainin,SoftwareType,DateUTC
2013-01-08 00:02:00,32.0,24.0,-100.00,SSE,165,8.0,14.0,72,-99.99,,,-99.99,,2013-01-08 06:02:00,
2013-01-08 00:12:00,32.0,24.0,-100.00,SSE,165,8.0,14.0,72,-99.99,,,-99.99,,2013-01-08 06:12:00,
2013-01-08 01:32:00,31.0,25.0,-100.00,South,170,7.0,14.0,77,-99.99,,,-99.99,,2013-01-08 07:32:00,
2013-01-08 01:42:00,31.0,25.0,-100.00,South,170,7.0,14.0,77,-99.99,,,-99.99,,2013-01-08 07:42:00,
2013-01-08 01:52:00,31.0,25.0,-100.00,South,170,7.0,14.0,77,-99.99,,,-99.99,,2013-01-08 07:52:00,
2013-01-08 02:02:00,31.0,25.0,-100.00,South,170,7.0,14.0,77,-99.99,,,-99.99,,2013-01-08 08:02:00,
2013-01-08 02:12:00,31.0,25.0,-100.00,South,170,7.0,14.0,77,-99.99,,,-99.99,,2013-01-08 08:12:00,
2013-01-08 03:33:00,30.0,24.0,-100.00,SSE,160,3.0,5.0,80,-99.99,,,-99.99,,2013-01-08 09:33:00,
2013-01-08 03:42:00,30.0,24.0,-100.00,SSE,160,3.0,5.0,80,-99.99,,,-99.99,,2013-01-08 09:42:00,
2013-01-08 03:52:00,30.0,24.0,-100.00,SSE,160,3.0,5.0,80,-99.99,,,-99.99,,2013-01-08 09:52:00,
2013-01-08 04:02:00,30.0,24.0,-100.00,SSE,160,3.0,5.0,80,-99.99,,,-99.99,,2013-01-08 10:02:00,
2013-01-08 04:12:00,30.0,24.0,-100.00,SSE,160,3.0,5.0,80,-99.99,,,-99.99,,2013-01-08 10:12:00,
2013-01-08 05:33:00,27.0,23.0,-100.00,SW,220,0.0,1.0,86,-99.99,,,-99.99,,2013-01-08 11:33:00,
2013-01-08 05:42:00,27.0,23.0,-100.00,SW,220,0.0,1.0,86,-99.99,,,-99.99,,2013-01-08 11:42:00,
2013-01-08 05:53:00,27.0,23.0,-100.00,SW,220,0.0,1.0,86,-99.99,,,-99.99,,2013-01-08 11:53:00,
2013-01-08 06:02:00,27.0,23.0,-100.00,SW,220,0.0,1.0,86,-99.99,,,-99.99,,2013-01-08 12:02:00,
2013-01-08 06:12:00,27.0,23.0,-100.00,SW,220,0.0,1.0,86,-99.99,,,-99.99,,2013-01-08 12:12:00,
2013-01-08 07:33:00,26.0,24.0,-100.00,South,175,4.0,6.0,90,-99.99,,,-99.99,,2013-01-08 13:33:00,
2013-01-08 07:43:00,26.0,24.0,-100.00,South,175,4.0,6.0,90,-99.99,,,-99.99,,2013-01-08 13:43:00,
2013-01-08 07:53:00,26.0,24.0,-100.00,South,175,4.0,6.0,90,-99.99,,,-99.99,,2013-01-08 13:53:00,
2013-01-08 08:02:00,26.0,24.0,-100.00,South,175,4.0,6.0,90,-99.99,,,-99.99,,2013-01-08 14:02:00,
2013-01-08 08:12:00,26.0,24.0,-100.00,South,175,4.0,6.0,90,-99.99,,,-99.99,,2013-01-08 14:12:00,
2013-01-08 09:33:00,29.0,26.0,-100.00,South,180,4.0,7.0,86,-99.99,,,-99.99,,2013-01-08 15:33:00,
2013-01-08 09:43:00,29.0,26.0,-100.00,South,180,4.0,7.0,86,-99.99,,,-99.99,,2013-01-08 15:43:00,
2013-01-08 09:53:00,29.0,26.0,-100.00,South,180,4.0,7.0,86,-99.99,,,-99.99,,2013-01-08 15:53:00,
2013-01-08 10:03:00,29.0,26.0,-100.00,South,180,4.0,7.0,86,-99.99,,,-99.99,,2013-01-08 16:03:00,
2013-01-08 10:12:00,29.0,26.0,-100.00,South,180,4.0,7.0,86,-99.99,,,-99.99,,2013-01-08 16:12:00,
2013-01-08 10:53:00,34.0,22.0,-100.00,SSE,160,6.0,12.0,61,-99.99,,,-99.99,,2013-01-08 16:53:00,
2013-01-08 11:13:00,34.0,22.0,-100.00,SSE,160,6.0,12.0,61,-99.99,,,-99.99,,2013-01-08 17:13:00,
2013-01-08 11:23:00,34.0,22.0,-100.00,SSE,160,6.0,12.0,61,-99.99,,,-99.99,,2013-01-08 17:23:00,
2013-01-08 11:33:00,34.0,22.0,-100.00,SSE,160,6.0,12.0,61,-99.99,,,-99.99,,2013-01-08 17:33:00,
2013-01-08 11:43:00,34.0,22.0,-100.00,SSE,160,6.0,12.0,61,-99.99,,,-99.99,,2013-01-08 17:43:00,
2013-01-08 12:12:00,40.0,22.0,-100.00,South,170,6.0,11.0,47,-99.99,,,-99.99,,2013-01-08 18:12:00,
2013-01-08 12:33:00,40.0,22.0,-100.00,South,170,6.0,11.0,47,-99.99,,,-99.99,,2013-01-08 18:33:00,
2013-01-08 12:43:00,40.0,22.0,-100.00,South,170,6.0,11.0,47,-99.99,,,-99.99,,2013-01-08 18:43:00,
2013-01-08 12:53:00,40.0,22.0,-100.00,South,170,6.0,11.0,47,-99.99,,,-99.99,,2013-01-08 18:53:00,
2013-01-08 13:03:00,40.0,22.0,-100.00,South,170,6.0,11.0,47,-99.99,,,-99.99,,2013-01-08 19:03:00,
2013-01-08 13:31:00,43.0,22.0,-100.00,ESE,115,5.0,12.0,44,-99.99,,,-99.99,,2013-01-08 19:31:00,
2013-01-08 13:53:00,43.0,22.0,-100.00,ESE,115,5.0,12.0,44,-99.99,,,-99.99,,2013-01-08 19:53:00,
2013-01-08 14:03:00,43.0,22.0,-100.00,ESE,115,5.0,12.0,44,-99.99,,,-99.99,,2013-01-08 20:03:00,
2013-01-08 14:12:00,43.0,22.0,-100.00,ESE,115,5.0,12.0,44,-99.99,,,-99.99,,2013-01-08 20:12:00,
2013-01-08 14:23:00,43.0,22.0,-100.00,ESE,115,5.0,12.0,44,-99.99,,,-99.99,,2013-01-08 20:23:00,
2013-01-08 14:32:00,41.0,22.0,-100.00,SE,145,5.0,12.0,46,-99.99,,,-99.99,,2013-01-08 20:32:00,
2013-01-08 14:54:00,41.0,22.0,-100.00,SE,145,5.0,12.0,46,-99.99,,,-99.99,,2013-01-08 20:54:00,
2013-01-08 15:03:00,41.0,22.0,-100.00,SE,145,5.0,12.0,46,-99.99,,,-99.99,,2013-01-08 21:03:00,
2013-01-08 15:13:00,41.0,22.0,-100.00,SE,145,5.0,12.0,46,-99.99,,,-99.99,,2013-01-08 21:13:00,
2013-01-08 15:23:00,41.0,22.0,-100.00,SE,145,5.0,12.0,46,-99.99,,,-99.99,,2013-01-08 21:23:00,
2013-01-08 16:12:00,38.0,24.0,-100.00,East,100,4.0,7.0,55,-99.99,,,-99.99,,2013-01-08 22:12:00,
2013-01-08 16:33:00,38.0,24.0,-100.00,East,100,4.0,7.0,55,-99.99,,,-99.99,,2013-01-08 22:33:00,
2013-01-08 16:43:00,38.0,24.0,-100.00,East,100,4.0,7.0,55,-99.99,,,-99.99,,2013-01-08 22:43:00,
2013-01-08 16:53:00,38.0,24.0,-100.00,East,100,4.0,7.0,55,-99.99,,,-99.99,,2013-01-08 22:53:00,
2013-01-08 17:02:00,38.0,24.0,-100.00,East,100,4.0,7.0,55,-99.99,,,-99.99,,2013-01-08 23:02:00,
2013-01-08 17:33:00,38.0,24.0,-100.00,ESE,120,1.0,7.0,58,-99.99,,,-99.99,,2013-01-08 23:33:00,
2013-01-08 17:43:00,38.0,24.0,-100.00,ESE,120,1.0,7.0,58,-99.99,,,-99.99,,2013-01-08 23:43:00,
2013-01-08 17:53:00,38.0,24.0,-100.00,ESE,120,1.0,7.0,58,-99.99,,,-99.99,,2013-01-08 23:53:00,
2013-01-08 18:02:00,38.0,24.0,-100.00,ESE,120,1.0,7.0,58,-99.99,,,-99.99,,2013-01-09 00:02:00,
2013-01-08 18:12:00,38.0,24.0,-100.00,ESE,120,1.0,7.0,58,-99.99,,,-99.99,,2013-01-09 00:12:00,
2013-01-08 18:33:00,38.0,25.0,-100.00,SE,145,5.0,11.0,59,-99.99,,,-99.99,,2013-01-09 00:33:00,
2013-01-08 18:43:00,38.0,25.0,-100.00,SE,145,5.0,11.0,59,-99.99,,,-99.99,,2013-01-09 00:43:00,
2013-01-08 18:53:00,38.0,25.0,-100.00,SE,145,5.0,11.0,59,-99.99,,,-99.99,,2013-01-09 00:53:00,
2013-01-08 19:02:00,38.0,25.0,-100.00,SE,145,5.0,11.0,59,-99.99,,,-99.99,,2013-01-09 01:02:00,
2013-01-08 19:12:00,38.0,26.0,-100.00,ESE,105,5.0,15.0,61,-99.99,,,-99.99,,2013-01-09 01:12:00,
2013-01-08 19:33:00,38.0,26.0,-100.00,ESE,105,5.0,15.0,61,-99.99,,,-99.99,,2013-01-09 01:33:00,
2013-01-08 19:42:00,38.0,26.0,-100.00,ESE,105,5.0,15.0,61,-99.99,,,-99.99,,2013-01-09 01:42:00,
2013-01-08 19:52:00,38.0,26.0,-100.00,ESE,105,5.0,15.0,61,-99.99,,,-99.99,,2013-01-09 01:52:00,
2013-01-08 20:02:00,38.0,26.0,-100.00,ESE,105,5.0,15.0,61,-99.99,,,-99.99,,2013-01-09 02:02:00,
2013-01-08 20:12:00,37.0,26.0,-100.00,SSE,160,6.0,14.0,63,-99.99,,,-99.99,,2013-01-09 02:12:00,
2013-01-08 20:33:00,37.0,26.0,-100.00,SSE,160,6.0,14.0,63,-99.99,,,-99.99,,2013-01-09 02:33:00,
2013-01-08 20:43:00,37.0,26.0,-100.00,SSE,160,6.0,14.0,63,-99.99,,,-99.99,,2013-01-09 02:43:00,
2013-01-08 20:53:00,37.0,26.0,-100.00,SSE,160,6.0,14.0,63,-99.99,,,-99.99,,2013-01-09 02:53:00,
2013-01-08 21:03:00,37.0,26.0,-100.00,SSE,160,6.0,14.0,63,-99.99,,,-99.99,,2013-01-09 03:03:00,
2013-01-08 21:11:00,38.0,26.0,-100.00,SSE,150,10.0,22.0,63,-99.99,,,-99.99,,2013-01-09 03:11:00,
2013-01-08 21:33:00,38.0,26.0,-100.00,SSE,150,10.0,22.0,63,-99.99,,,-99.99,,2013-01-09 03:33:00,
2013-01-08 21:43:00,38.0,26.0,-100.00,SSE,150,10.0,22.0,63,-99.99,,,-99.99,,2013-01-09 03:43:00,
2013-01-08 21:53:00,38.0,26.0,-100.00,SSE,150,10.0,22.0,63,-99.99,,,-99.99,,2013-01-09 03:53:00,
2013-01-08 22:02:00,38.0,26.0,-100.00,SSE,150,10.0,22.0,63,-99.99,,,-99.99,,2013-01-09 04:02:00,
2013-01-08 22:11:00,38.0,26.0,-100.00,SSE,165,9.0,17.0,62,-99.99,,,-99.99,,2013-01-09 04:11:00,
2013-01-08 22:33:00,38.0,26.0,-100.00,SSE,165,9.0,17.0,62,-99.99,,,-99.99,,2013-01-09 04:33:00,
2013-01-08 22:43:00,38.0,26.0,-100.00,SSE,165,9.0,17.0,62,-99.99,,,-99.99,,2013-01-09 04:43:00,
2013-01-08 22:52:00,38.0,26.0,-100.00,SSE,165,9.0,17.0,62,-99.99,,,-99.99,,2013-01-09 04:52:00,
2013-01-08 23:03:00,38.0,26.0,-100.00,SSE,165,9.0,17.0,62,-99.99,,,-99.99,,2013-01-09 05:03:00,
2013-01-08 23:11:00,39.0,26.0,-100.00,South,170,9.0,19.0,59,-99.99,,,-99.99,,2013-01-09 05:11:00,
2013-01-08 23:33:00,39.0,26.0,-100.00,South,170,9.0,19.0,59,-99.99,,,-99.99,,2013-01-09 05:33:00,
2013-01-08 23:43:00,39.0,26.0,-100.00,South,170,9.0,19.0,59,-99.99,,,-99.99,,2013-01-09 05:43:00,
2013-01-08 23:53:00,39.0,26.0,-100.00,South,170,9.0,19.0,59,-99.99,,,-99.99,,2013-01-09 05:53:00,